Flight Track Log - Related Links

Times and Time Zones

All times are in EDT time to prevent confusion due to time zone crossing. See the AWE1092 flight status page for this flight to view local times or setup timezone preferences in your user account.

Time Position Orientation Groundspeed Altitude Reporting Facility
EDT Latitude Longitude Course Direction KTS MPH feet Rate Location/Type
Mon 10:25:56 AM 39.8833 -75.2167 185° South 133 153 1,000  Level Philadelphia TRACON
Mon 10:26:13 AM 39.8739 -75.2067 141° Southeast 140 161 1,500 1,459 Climbing FAA TRACON SMA TRACON (SMA)
Mon 10:26:33 AM 39.8675 -75.1897 116° Southeast 171 197 1,900 1,350 Climbing FAA TRACON SMA TRACON (SMA)
Mon 10:26:53 AM 39.8597 -75.1689 116° Southeast 204 235 2,400 2,550 Climbing FAA TRACON SMA TRACON (SMA)
Mon 10:27:13 AM 39.8497 -75.1442 118° Southeast 200 230 3,600 3,150 Climbing FAA TRACON SMA TRACON (SMA)
Mon 10:27:33 AM 39.8414 -75.1239 118° Southeast 203 234 4,500 3,150 Climbing FAA TRACON SMA TRACON (SMA)
Mon 10:27:53 AM 39.8306 -75.0981 119° Southeast 208 239 5,700 3,150 Climbing FAA TRACON SMA TRACON (SMA)
Mon 10:28:00 AM 39.5998 -75.3000 180° South  Level FlightAware Approximate
Mon 10:28:13 AM 39.8131 -75.0872 155° Southeast 235 270 6,600  Level FAA TRACON SMA TRACON (SMA)
Mon 10:28:33 AM 39.7933 -75.0931 193° South 252 290 7,100 1,950 Climbing FAA TRACON SMA TRACON (SMA)
Mon 10:28:53 AM 39.7747 -75.1100 215° Southwest 283 326 7,900 2,700 Climbing FAA TRACON SMA TRACON (SMA)
Mon 10:29:00 AM 39.5070 -75.3153 189° South  Level FlightAware Approximate
Mon 10:29:13 AM 39.7478 -75.1314 211° Southwest 274 315 8,900  Level FAA TRACON SMA TRACON (SMA)
Mon 10:29:33 AM 39.7278 -75.1478 212° Southwest 274 315 9,300 1,650 Climbing FAA TRACON SMA TRACON (SMA)
Mon 10:29:53 AM 39.7075 -75.1639 211° Southwest 275 316 10,000 2,250 Climbing FAA TRACON SMA TRACON (SMA)
Mon 10:30:00 AM 39.4150 -75.3354 185° South  Level FlightAware Approximate
Mon 10:30:13 AM 39.6842 -75.1828 212° Southwest 277 319 10,800  Level FAA TRACON SMA TRACON (SMA)
Mon 10:30:33 AM 39.6597 -75.2025 212° Southwest 315 362 11,100 1,500 Climbing FAA TRACON SMA TRACON (SMA)
Mon 10:30:53 AM 39.6356 -75.2214 211° Southwest 323 372 11,800 900 Climbing FAA TRACON SMA TRACON (SMA)
Mon 10:31:00 AM 39.3216 -75.3457 185° South  Level FlightAware Approximate
Mon 10:31:33 AM 39.5817 -75.2650 212° Southwest 329 379 12,000  Level FAA TRACON SMA TRACON (SMA)
Mon 10:31:53 AM 39.5578 -75.2847 212° Southwest 330 380 12,000 150 Level FAA TRACON SMA TRACON (SMA)
Mon 10:32:13 AM 39.5319 -75.3047 211° Southwest 330 380 12,100 1,650 Climbing FAA TRACON SMA TRACON (SMA)
Mon 10:32:33 AM 39.5031 -75.3256 209° Southwest 323 372 13,100 2,550 Climbing FAA TRACON SMA TRACON (SMA)
Mon 10:32:53 AM 39.4742 -75.3331 191° South 340 391 13,800 2,700 Climbing FAA TRACON SMA TRACON (SMA)
Mon 10:33:13 AM 39.4394 -75.3400 189° South 340 391 14,900 2,850 Climbing FAA TRACON SMA TRACON (SMA)
Mon 10:33:33 AM 39.4111 -75.3447 187° South 335 386 15,700 1,650 Climbing FAA TRACON SMA TRACON (SMA)
Mon 10:33:53 AM 39.3833 -75.3489 187° South 337 388 16,000 450 Climbing FAA TRACON SMA TRACON (SMA)
Mon 10:34:13 AM 39.3467 -75.3561 189° South 338 389 16,000  Level FAA TRACON SMA TRACON (SMA)
Mon 10:34:33 AM 39.3186 -75.3592 185° South 339 390 16,000  Level FAA TRACON SMA TRACON (SMA)
Mon 10:34:53 AM 39.2883 -75.3667 191° South 340 391 16,000  Level FAA TRACON SMA TRACON (SMA)
Mon 10:35:13 AM 39.2597 -75.3719 188° South 339 390 16,000  Level FAA TRACON SMA TRACON (SMA)
Mon 10:35:36 AM 39.2453 -75.3744 188° South 339 390 16,000 174 Level FAA TRACON SMA TRACON (SMA)
Mon 10:37:31 AM 39.0486 -75.4072 187° South 347 399 16,400 651 Climbing Washington Center
Mon 10:38:31 AM 38.9528 -75.4208 186° South 347 399 17,900 1,700 Climbing Washington Center
Mon 10:39:31 AM 38.8528 -75.4369 187° South 352 405 19,800 2,000 Climbing Washington Center
Mon 10:40:31 AM 38.7506 -75.4506 186° South 363 418 21,900 1,100 Climbing Washington Center
Mon 10:41:31 AM 38.6483 -75.4667 187° South 369 425 22,000 50 Climbing Washington Center
Mon 10:42:31 AM 38.5464 -75.4856 188° South 374 430 22,000  Level Washington Center
Mon 10:43:31 AM 38.4442 -75.4964 185° South 374 430 22,000  Level Washington Center
Mon 10:44:31 AM 38.3442 -75.5122 187° South 368 423 22,000 -150 Level Washington Center
Mon 10:45:31 AM 38.2439 -75.5681 204° Southwest 362 417 21,700 -500 Descending Washington Center
Mon 10:46:31 AM 38.1669 -75.6208 208° Southwest 339 390 21,000 -350 Descending Washington Center
Mon 10:47:31 AM 38.0833 -75.6736 206° Southwest 334 384 21,000  Level Washington Center
Mon 10:48:31 AM 37.9958 -75.7314 207° Southwest 345 397 21,000  Level Washington Center
Mon 10:49:31 AM 37.9122 -75.7864 207° Southwest 350 403 21,000 -50 Level Washington Center
Mon 10:50:31 AM 37.8350 -75.8258 202° Southwest 344 396 20,900 -500 Descending Washington Center
Mon 10:51:31 AM 37.7453 -75.8806 206° Southwest 338 389 20,000 -454 Descending Washington Center
Mon 10:52:30 AM 37.6639 -75.9328 207° Southwest 333 383 20,000  Level Washington Center
Mon 10:53:31 AM 37.5886 -75.9956 213° Southwest 333 383 20,000  Level Washington Center
Mon 10:54:31 AM 37.5297 -76.0894 232° Southwest 350 403 20,000  Level Washington Center
Mon 10:55:12 AM 37.4858 -76.1519 229° Southwest 351 404 20,000  Level Washington Center
Mon 10:55:31 AM 37.4711 -76.1728 228° Southwest 350 403 20,000  Level Washington Center
Mon 10:56:30 AM 37.4100 -76.2639 230° Southwest 357 411 20,000  Level Washington Center
Mon 10:57:31 AM 37.3489 -76.3600 231° Southwest 357 411 20,000  Level Washington Center
Mon 10:58:30 AM 37.2878 -76.4558 231° Southwest 357 411 20,000  Level Washington Center
Mon 10:59:31 AM 37.2267 -76.5492 231° Southwest 357 411 20,000  Level Washington Center
Mon 11:00:31 AM 37.1611 -76.6500 231° Southwest 357 411 20,000 -400 Level Washington Center
Mon 11:01:31 AM 37.0892 -76.7636 232° Southwest 369 425 19,200 -500 Descending Washington Center
Mon 11:02:31 AM 37.0236 -76.8639 231° Southwest 374 430 19,000 -100 Descending Washington Center
Mon 11:03:31 AM 36.9578 -76.9642 231° Southwest 374 430 19,000  Level Washington Center
Mon 11:04:31 AM 36.8917 -77.0694 232° Southwest 374 430 19,000  Level Washington Center
Mon 11:05:31 AM 36.8258 -77.1722 231° Southwest 374 430 19,000  Level Washington Center
Mon 11:06:31 AM 36.7597 -77.2719 230° Southwest 374 430 19,000  Level Washington Center
Mon 11:07:31 AM 36.6917 -77.3714 230° Southwest 374 430 19,000  Level Washington Center
Mon 11:08:31 AM 36.6275 -77.4733 232° Southwest 374 430 19,000  Level Washington Center
Mon 11:09:31 AM 36.5611 -77.5753 231° Southwest 379 436 19,000  Level Washington Center
Mon 11:10:31 AM 36.4947 -77.6769 231° Southwest 379 436 19,000  Level Washington Center
Mon 11:11:31 AM 36.4283 -77.7786 231° Southwest 379 436 19,000  Level Washington Center
Mon 11:12:31 AM 36.3617 -77.8822 231° Southwest 389 448 19,000 -383 Level Washington Center
Mon 11:13:05 AM 36.3231 -77.9406 231° Southwest 378 435 18,400 -1,200 Descending Washington Center
Mon 11:13:31 AM 36.2950 -77.9808 229° Southwest 389 448 17,800 -1,964 Descending Washington Center
Mon 11:14:00 AM 36.2606 -78.0314 230° Southwest 379 436 16,600 -2,237 Descending Washington Center
Mon 11:14:30 AM 36.2283 -78.0819 232° Southwest 384 442 15,600 -1,967 Descending Washington Center
Mon 11:15:01 AM 36.1939 -78.1322 230° Southwest 372 428 14,600 -1,770 Descending Washington Center
Mon 11:15:31 AM 36.1658 -78.1778 233° Southwest 377 434 13,800 -1,700 Descending Washington Center
Mon 11:16:01 AM 36.1417 -78.2258 238° Southwest 327 376 12,900 -1,900 Descending Washington Center
Mon 11:16:31 AM 36.1219 -78.2714 242° Southwest 340 391 11,900 -1,377 Descending Washington Center
Mon 11:17:02 AM 36.1000 -78.3194 241° Southwest 299 344 11,500 -900 Descending Washington Center
Mon 11:17:31 AM 36.0781 -78.3600 236° Southwest 315 362 11,000 -900 Descending Washington Center
Mon 11:18:02 AM 36.0564 -78.4053 239° Southwest 289 333 10,600 -800 Descending Washington Center
Mon 11:18:31 AM 36.0431 -78.4358 242° Southwest 299 344 10,200 -885 Descending Washington Center
Mon 11:19:03 AM 36.0167 -78.4886 238° Southwest 289 333 9,700 -900 Descending Washington Center
Mon 11:19:31 AM 35.9950 -78.5264 235° Southwest 299 344 9,300 -885 Descending Washington Center
Mon 11:20:04 AM 35.9586 -78.5661 221° Southwest 281 323 8,800 -800 Descending Washington Center
Mon 11:20:31 AM 35.9369 -78.5908 223° Southwest 287 330 8,500 -700 Descending Washington Center
Mon 11:21:04 AM 35.9047 -78.6256 221° Southwest 253 291 8,100 -508 Descending Washington Center
Mon 11:21:30 AM 35.8856 -78.6456 220° Southwest 267 307 8,000 -98 Descending Washington Center
Mon 11:22:05 AM 35.8494 -78.6722 211° Southwest 232 267 8,000  Level Washington Center
Mon 11:22:31 AM 35.8322 -78.6947 227° Southwest 254 292 8,000 -800 Level Washington Center
Mon 11:23:05 AM 35.8019 -78.7292 223° Southwest 233 268 7,200 -1,453 Descending Washington Center
Mon 11:24:06 AM 35.7589 -78.7814 225° Southwest 217 250 5,700 -1,377 Descending Washington Center
Mon 11:25:07 AM 35.7303 -78.8389 239° Southwest 206 237 4,400 -1,289 Descending Washington Center
Mon 11:26:07 AM 35.7581 -78.8861 306° West 177 204 3,100 -1,300 Descending Washington Center

Login

Don't have an account? Register now (free) for customized features, flight alerts, and more!